Карточка аэропорта UATE

Внимание!
Информация на этой странице в стадии наполнения.
Если вы не увидели какой-то информации, или заметили неточность - пожалуйста сообщите нам!
Спасибо!
Команда RU-STAFF
Название аэропортаАктау
Название аэропорта (англ.)Aktau
Превышение75 ft. (22.9 m.)
Координаты43°51.138', 51°5.3639999999999'
Высота перехода2050
Эшелон переходаFL40
Коды ответчика3460-3467, 3550-3557
Зона ОрВДАктобе РПИ (UATT)
Данные METARUATE 241430Z 31007G12MPS 260V350 9999 FEW013 SCT040 17/14 Q1007 R30/0///70 NOSIG RMK QFE754/1005
Проноз погоды (TAF)UATE 241059Z 2412/2512 30007G13MPS 6000 SCT033CB TX21/2509Z TN13/2502Z TEMPO 2412/2418 33012G18MPS 3100 BLDU SCT011 TEMPO 2418/2424 3100 BR SCT005 BECMG 2508/2510 34007MPS 9999
NOTAMshow/hide NOTAM
AWOS   TABLE

Информация о ВПП

ВПП Длина ВПП (м.) Покрытие Курс ВПП Частота ILS
123052Асфальтобетон122109.5
303052Асфальт302111.1

Диспетчерские позиции

Позывной Наименование органа УВД Частота
UATE_APPАктау Поход134.3
UATE_TWRАктау Вышка120.7



Спутниковое изображение